Boulder, CO

2:48 AM MST on December 07, 2016 (GMT -0700)
63rd St and Jay Rd | | Change Station
Active Advisory: Winter Weather Advisory Active Notice: Local Storm Report

Elev 5202 ft 40.06 °N, 105.21 °W | Updated 1 minute ago

Light Snow
Light Snow
17.4 °F
Feels Like 17 °F
N
0.0
Wind Variable Wind from East
Gusts 0.0 mph

Today
High -- | Low -- °F
--% Chance of Precip.
Yesterday
High -- | Low -- °F
Precip. -- in
Pressure 29.92 in
Visibility 1.8 miles
Clouds Scattered Clouds 800 ft
Overcast 1400 ft
Windchill 17 °F
Dew Point 14 °F
Humidity 86%
Rainfall 0.00 in
Snow Depth Not available.
7:09 AM 4:35 PM
Waxing Crescent, 51% visible
METAR KBDU 070935Z AUTO 06005KT 1 3/4SM -SN SCT008 OVC014 M07/M08 A2992 RMK AO2
Pressure 29.92 in
Visibility 1.8 miles
Clouds Scattered Clouds 800 ft
Overcast 1400 ft
Windchill 17 °F
Dew Point 14 °F
Humidity 86%
Rainfall 0.00 in
Snow Depth Not available.
7:09 AM 4:35 PM
Waxing Crescent, 51% visible
METAR KBDU 070935Z AUTO 06005KT 1 3/4SM -SN SCT008 OVC014 M07/M08 A2992 RMK AO2

10-Day Weather Forecast

Almanac

Astronomy

Dec. 07, 2016 Rise Set
Actual Time
Civil Twilight
Nautical Twilight
Astronomical Twilight
Moon
Length of Visible Light
Length of Day
Tomorrow will be .
, % of the Moon is Illuminated

Today's Extremes

State Highs State Lows

Community

WunderPhotos

Upload Photos

1,956,111 photos uploaded!

WunderBlog® & News

Nearby

Air Quality

  Air Quality AQ Index Pollutant
Not available.

Snow Depth

Station Depth Elevation

Earthquake Activity

City Distance Mag. Time & Date
Minimum magnitude displayed is 2.5.

Coastal Water Temperatures

Place Temperature

Stations

Nearby Weather Stations

Station Location Temp. Windchill Dew Point Humidity Wind Precip. Elev Updated Type
                   

Watches & Warnings

Winter Weather Advisory
Issued: 5:23 PM MST Dec. 6, 2016 – National Weather Service

... Winter Weather Advisory remains in effect until noon MST
Wednesday...

* timing... light snow will start around rush hour and increase
in intensity through the evening and continue through
Wednesday afternoon.

* Snow accumulations... snowfall amounts of 2 to 5 inches will be
possible with higher amounts west of I-25.

* Impacts... roads will become snowpacked and slippery. Travel will
be hazardous tonight and Wednesday morning due to snowpacked
roads and reduced visibility.

Precautionary/preparedness actions...

A Winter Weather Advisory for snow means that periods of snow
will cause primarily travel difficulties. Be prepared for snow
covered roads and limited visibilities... and use caution while
driving.